Time;durP1;ratioP1;P1;durP2;ratioP2;P2;SDS_P1;SDS_P2;PMS_P1;PMS_P2;Temp;Humidity;BMP_temperature;BMP_pressure;BME280_temperature;BME280_humidity;BME280_pressure;Samples;Min_cycle;Max_cycle;Signal;HPM_P1;HPM_P2
2024/02/28 08:18:07;;;;;;;54.38;23.85;;;;;;;4.67;92.39;96929.63;2084158;28;20555;-61
2024/02/28 09:52:22;;;;;;;27.25;13.93;;;;;;;6.36;82.18;96960.91;2080827;28;20560;-60
2024/02/28 09:55:24;;;;;;;29.80;13.55;;;;;;;6.56;81.11;96942.28;2107914;27;20570;-60
2024/02/28 09:58:12;;;;;;;28.15;14.07;;;;;;;6.89;80.81;96950.13;2074506;28;20942;-62
2024/02/28 10:01:02;;;;;;;29.17;15.35;;;;;;;6.51;80.65;96942.41;2077531;28;20582;-63
2024/02/28 10:04:02;;;;;;;23.55;13.80;;;;;;;6.12;81.17;96959.72;2082845;28;20558;-60
2024/02/28 12:02:11;;;;;;;33.40;16.52;;;;;;;6.93;80.46;97031.41;2080798;28;21122;-60
2024/02/28 12:05:44;;;;;;;27.73;15.43;;;;;;;6.98;80.37;97025.22;2073023;27;1247103;-60
2024/02/28 12:09:00;;;;;;;30.15;16.67;;;;;;;7.35;79.41;97032.09;2083835;28;20595;-63
2024/02/28 12:12:06;;;;;;;27.35;15.45;;;;;;;7.55;79.32;97033.28;2080946;28;20577;-60
2024/02/28 12:15:13;;;;;;;27.90;15.07;;;;;;;7.68;78.54;97029.50;2100123;27;20576;-62
2024/02/28 12:18:36;;;;;;;27.00;15.40;;;;;;;7.48;78.95;97029.16;2083546;28;20543;-63
2024/02/28 12:22:16;;;;;;;24.30;14.15;;;;;;;7.32;78.58;97028.72;2103804;27;20541;-63
2024/02/28 12:25:39;;;;;;;25.38;13.32;;;;;;;7.32;78.61;97019.16;2082922;28;20582;-62
2024/02/28 12:28:51;;;;;;;30.45;15.55;;;;;;;7.39;78.40;97016.41;2085114;28;20567;-60
2024/02/28 12:32:09;;;;;;;24.20;13.13;;;;;;;7.49;77.87;97018.72;2083679;28;20705;-60
2024/02/28 13:33:10;;;;;;;25.38;14.68;;;;;;;7.35;78.44;96998.31;2082917;28;21065;-67
2024/02/28 13:36:24;;;;;;;32.97;15.45;;;;;;;7.46;76.54;96998.00;2082342;28;21075;-67
2024/02/28 13:39:30;;;;;;;33.35;15.45;;;;;;;7.11;76.82;96984.22;2100907;27;20541;-65
2024/02/28 13:40:31;;;;;;;32.63;15.68;;;;;;;7.27;76.79;96982.06;2098988;28;20576;-64
2024/02/28 13:43:24;;;;;;;24.85;14.57;;;;;;;6.78;78.60;96983.28;2084118;27;20579;-62
2024/02/28 13:46:46;;;;;;;30.85;15.40;;;;;;;7.12;78.04;96975.53;2083303;28;20892;-62
2024/02/28 14:53:29;;;;;;;33.05;16.25;;;;;;;5.77;81.51;96989.81;2100956;27;21076;-58
2024/02/28 14:56:11;;;;;;;31.52;14.27;;;;;;;5.71;81.70;96990.75;2095162;27;20562;-60
2024/02/28 14:57:13;;;;;;;36.85;17.08;;;;;;;5.65;81.75;96991.75;2081118;28;20851;-60
2024/02/28 14:58:15;;;;;;;34.38;17.40;;;;;;;6.01;80.84;96991.91;2080233;28;20201;-61
2024/02/28 14:59:16;;;;;;;32.83;16.25;;;;;;;6.48;79.16;96983.97;2073202;28;20206;-60
2024/02/28 15:00:19;;;;;;;40.30;15.27;;;;;;;6.53;78.38;96994.25;2073312;28;20251;-61
2024/02/28 15:01:22;;;;;;;25.83;14.30;;;;;;;6.64;77.68;96986.22;2073880;28;20228;-61
2024/02/28 15:02:23;;;;;;;32.80;16.70;;;;;;;6.50;77.81;96992.59;2072213;28;20241;-60
2024/02/28 15:03:25;;;;;;;36.90;15.10;;;;;;;6.34;78.30;96973.91;2076660;28;20255;-61
2024/02/28 15:04:27;;;;;;;31.20;14.73;;;;;;;6.34;78.21;96989.47;2077598;28;20197;-61
2024/02/28 15:05:28;;;;;;;24.55;14.55;;;;;;;6.46;78.30;96988.38;2073792;28;20202;-61
2024/02/28 15:06:31;;;;;;;26.23;14.38;;;;;;;6.51;78.20;96985.66;2074006;28;20259;-61
2024/02/28 15:07:34;;;;;;;27.73;14.75;;;;;;;6.29;78.26;96986.13;2071101;28;20895;-61
2024/02/28 15:08:36;;;;;;;32.33;14.40;;;;;;;6.43;78.45;96988.41;2072983;28;20227;-60
2024/02/28 15:09:38;;;;;;;23.25;13.15;;;;;;;5.96;79.42;96992.88;2088801;28;20250;-61
2024/02/28 15:10:42;;;;;;;27.27;14.10;;;;;;;5.96;80.06;96993.72;2091222;28;20234;-61
2024/02/28 15:11:43;;;;;;;27.73;13.82;;;;;;;6.25;79.69;96989.69;2076595;28;20279;-61
2024/02/28 15:12:45;;;;;;;27.95;14.63;;;;;;;6.14;79.30;96996.84;2074839;28;20323;-61
2024/02/28 15:13:47;;;;;;;27.42;14.73;;;;;;;6.02;79.76;96996.22;2075913;28;20251;-61
2024/02/28 15:14:49;;;;;;;24.52;13.75;;;;;;;6.16;79.65;96987.31;2074220;28;20201;-61
2024/02/28 15:15:51;;;;;;;28.10;13.38;;;;;;;6.11;79.33;96986.56;2072811;28;20740;-61
2024/02/28 15:16:52;;;;;;;25.90;14.52;;;;;;;6.25;79.36;96981.03;2073230;28;20189;-61
2024/02/28 15:17:54;;;;;;;27.23;13.77;;;;;;;6.23;79.47;96988.00;2073056;28;20710;-60
2024/02/28 15:18:55;;;;;;;25.58;14.48;;;;;;;6.22;79.22;96981.94;2073510;28;20744;-60
2024/02/28 15:19:57;;;;;;;30.63;14.90;;;;;;;6.36;78.37;96984.25;2073145;28;20251;-60
2024/02/28 15:20:59;;;;;;;29.58;15.20;;;;;;;6.25;79.23;96992.28;2073678;28;20856;-60
2024/02/28 15:22:04;;;;;;;27.60;14.18;;;;;;;6.34;78.53;96981.69;2076208;28;20202;-60
2024/02/28 15:23:06;;;;;;;25.08;14.02;;;;;;;6.58;77.97;96979.44;2073267;28;20224;-66
2024/02/28 15:24:07;;;;;;;34.05;14.70;;;;;;;6.86;77.73;96981.38;2073907;28;20194;-66
2024/02/28 15:25:09;;;;;;;24.55;15.05;;;;;;;7.05;76.40;96986.09;2070390;28;20857;-66
2024/02/28 15:26:10;;;;;;;27.98;13.35;;;;;;;7.22;76.42;96977.88;2070346;28;20194;-66
2024/02/28 15:27:12;;;;;;;29.52;13.30;;;;;;;7.48;76.25;96980.63;2074016;28;20663;-66
2024/02/28 15:28:14;;;;;;;26.05;14.15;;;;;;;8.16;74.05;96967.47;2073859;28;20289;-66
2024/02/28 15:29:15;;;;;;;25.65;12.50;;;;;;;8.75;71.73;96978.72;2072789;28;20194;-66
2024/02/28 15:30:17;;;;;;;26.35;13.40;;;;;;;9.47;69.68;96978.03;2071331;28;20204;-66
2024/02/28 15:31:18;;;;;;;23.80;13.98;;;;;;;9.76;67.88;96979.66;2071068;28;20289;-66
2024/02/28 15:32:20;;;;;;;26.80;14.18;;;;;;;9.99;67.02;96970.09;2072855;28;20194;-66
2024/02/28 15:33:22;;;;;;;28.05;15.05;;;;;;;8.30;69.81;96956.66;2074364;28;20207;-67
2024/02/28 15:34:23;;;;;;;31.30;13.13;;;;;;;8.98;70.02;96983.19;2073334;28;20630;-67
2024/02/28 15:35:25;;;;;;;24.35;13.23;;;;;;;9.83;67.90;96974.19;2069898;28;20224;-66
2024/02/28 15:36:27;;;;;;;30.05;14.25;;;;;;;9.80;67.03;96972.53;2070839;28;20214;-67
2024/02/28 15:37:28;;;;;;;28.27;14.55;;;;;;;10.12;65.54;96970.50;2073456;28;20225;-67
2024/02/28 15:38:30;;;;;;;22.95;13.35;;;;;;;9.67;67.59;96972.13;2073270;28;20202;-67
2024/02/28 15:39:31;;;;;;;22.95;13.43;;;;;;;8.43;68.87;96975.31;2074171;28;20201;-67
2024/02/28 15:40:33;;;;;;;26.60;13.93;;;;;;;8.24;70.86;96975.91;2070158;28;20645;-66
2024/02/28 15:41:34;;;;;;;24.92;13.93;;;;;;;7.91;72.24;96977.72;2070166;28;20197;-66
2024/02/28 15:42:39;;;;;;;24.85;14.27;;;;;;;8.05;72.30;96972.13;2073554;28;20328;-66
2024/02/28 15:43:41;;;;;;;26.88;14.60;;;;;;;7.78;73.12;96977.22;2073443;28;20567;-66
2024/02/28 15:44:42;;;;;;;30.90;14.77;;;;;;;7.59;73.06;96972.56;2073286;28;20288;-67
2024/02/28 15:45:44;;;;;;;26.35;14.23;;;;;;;7.61;73.02;96975.97;2074704;28;20232;-66
2024/02/28 15:46:45;;;;;;;24.60;13.80;;;;;;;7.08;74.71;96975.63;2084845;28;20196;-66
2024/02/28 15:47:47;;;;;;;32.13;14.65;;;;;;;6.61;75.88;96968.13;2089911;28;20599;-66
2024/02/28 15:48:49;;;;;;;24.50;13.25;;;;;;;6.82;75.92;96967.59;2074233;28;20606;-67
2024/02/28 15:49:50;;;;;;;33.40;14.80;;;;;;;7.19;75.07;96965.81;2077511;28;20220;-67
2024/02/28 15:50:53;;;;;;;33.88;14.77;;;;;;;7.24;74.74;96961.38;2076765;28;20631;-66
2024/02/28 15:51:54;;;;;;;22.60;12.90;;;;;;;7.56;74.56;96970.03;2072310;28;20431;-67
2024/02/28 15:52:56;;;;;;;40.60;14.65;;;;;;;7.57;74.15;96971.75;2076650;28;20727;-66
2024/02/28 15:53:58;;;;;;;27.60;16.08;;;;;;;7.27;74.36;96973.41;2077028;28;20703;-66
2024/02/28 15:54:59;;;;;;;22.67;12.00;;;;;;;7.01;75.11;96973.19;2073269;28;20212;-66
2024/02/28 15:56:01;;;;;;;26.00;13.90;;;;;;;6.87;76.06;96980.50;2072993;28;20229;-66
2024/02/28 15:57:03;;;;;;;39.17;14.82;;;;;;;7.08;75.57;96980.84;2072481;28;20786;-66
2024/02/28 15:58:05;;;;;;;28.38;13.35;;;;;;;6.62;76.03;96967.25;2072290;28;20268;-66
2024/02/28 15:59:07;;;;;;;31.58;14.18;;;;;;;6.48;76.43;96967.56;2072683;28;20201;-61
2024/02/28 16:00:09;;;;;;;28.70;14.60;;;;;;;6.16;78.21;96975.19;2072745;28;20931;-61
2024/02/28 16:01:12;;;;;;;23.27;13.52;;;;;;;6.08;78.81;96973.63;2073951;28;20194;-66
2024/02/28 16:02:13;;;;;;;25.42;13.63;;;;;;;5.75;79.04;96978.59;2069470;28;20248;-67
2024/02/28 16:03:15;;;;;;;29.55;14.27;;;;;;;5.60;79.98;96978.03;2070129;28;20715;-66
2024/02/28 16:04:16;;;;;;;31.10;14.57;;;;;;;5.43;80.37;96972.31;2063885;28;20202;-67
2024/02/28 16:05:18;;;;;;;27.88;13.88;;;;;;;5.29;80.93;96951.84;2074022;28;20256;-67
2024/02/28 16:06:20;;;;;;;28.77;14.23;;;;;;;5.73;80.19;96978.63;2072756;28;20440;-61
2024/02/28 16:07:31;;;;;;;34.05;14.25;;;;;;;5.48;80.93;96971.34;2067473;28;20222;-67
2024/02/28 16:08:33;;;;;;;34.03;18.52;;;;;;;5.61;80.53;96982.34;2069383;28;20209;-67
2024/02/28 16:09:36;;;;;;;29.40;14.93;;;;;;;5.89;80.06;96968.78;2067791;28;20209;-61
2024/02/28 16:10:37;;;;;;;35.20;16.15;;;;;;;5.86;79.65;96976.66;2065194;28;20624;-62
2024/02/28 16:11:42;;;;;;;31.23;15.80;;;;;;;6.03;78.63;96964.22;2066304;28;20333;-61
2024/02/28 16:12:43;;;;;;;30.85;16.60;;;;;;;5.75;79.96;96963.91;2068033;28;20222;-61
2024/02/28 16:13:48;;;;;;;34.35;16.77;;;;;;;5.76;79.62;96977.72;2068325;28;20217;-61
2024/02/28 16:14:49;;;;;;;31.48;15.32;;;;;;;5.55;80.62;96977.28;2069771;28;20771;-65
2024/02/28 16:15:51;;;;;;;34.35;16.55;;;;;;;5.48;80.68;96975.66;2075154;28;20288;-67
2024/02/28 16:16:53;;;;;;;32.75;17.73;;;;;;;5.36;81.77;96985.38;2073216;28;20306;-67
2024/02/28 16:17:54;;;;;;;25.60;14.32;;;;;;;5.66;81.28;96974.44;2067082;28;20242;-67
2024/02/28 16:18:56;;;;;;;30.15;13.88;;;;;;;5.47;81.15;96984.31;2067005;28;20206;-66
2024/02/28 16:19:58;;;;;;;26.40;13.30;;;;;;;5.31;81.81;96973.41;2084091;28;20243;-67
2024/02/28 16:21:00;;;;;;;29.42;14.15;;;;;;;5.36;81.63;96990.56;2084174;28;20215;-67
2024/02/28 16:22:02;;;;;;;24.30;13.70;;;;;;;5.22;82.46;96987.38;2072251;28;20248;-67
2024/02/28 16:23:05;;;;;;;28.15;14.45;;;;;;;4.99;82.63;96983.44;2066239;28;20217;-67
2024/02/28 16:24:06;;;;;;;29.52;15.55;;;;;;;4.98;83.01;96991.25;2067554;28;20268;-67
2024/02/28 16:25:08;;;;;;;29.92;15.40;;;;;;;5.06;83.35;96999.72;2066460;28;20251;-67
2024/02/28 16:26:11;;;;;;;28.75;14.32;;;;;;;4.84;83.77;96994.06;2070568;28;20751;-61
2024/02/28 16:27:12;;;;;;;30.08;14.25;;;;;;;5.01;83.60;96996.34;2069058;28;20206;-61
2024/02/28 16:28:14;;;;;;;30.83;14.45;;;;;;;5.32;82.76;96993.22;2066221;28;20206;-60
2024/02/28 16:29:15;;;;;;;29.02;15.18;;;;;;;5.14;82.76;96992.69;2068305;28;20255;-61
2024/02/28 16:30:17;;;;;;;29.52;14.48;;;;;;;4.89;83.58;97000.84;2064331;28;20203;-61
2024/02/28 16:31:18;;;;;;;32.00;13.77;;;;;;;4.80;83.71;96989.78;2069555;28;20195;-61
2024/02/28 16:35:01;;;;;;;33.60;15.10;;;;;;;4.62;84.56;96999.59;2086655;28;20580;-60
2024/02/28 16:36:03;;;;;;;34.35;16.13;;;;;;;4.97;84.31;96990.38;2086361;28;20816;-64
2024/02/28 16:37:04;;;;;;;25.67;16.10;;;;;;;4.77;84.14;96989.84;2086044;28;20204;-64
2024/02/28 16:38:06;;;;;;;28.85;15.75;;;;;;;4.95;84.03;96997.34;2070248;28;20229;-64
